sensor_id;sensor_type;location;lat;lon;timestamp;pressure;altitude;pressure_sealevel;temperature;humidity
57594;BME280;43423;46.510;6.686;2022-11-20T00:00:55;96094.13;;;5.65;73.66
57594;BME280;43423;46.510;6.686;2022-11-20T00:03:21;96097.16;;;5.67;74.04
57594;BME280;43423;46.510;6.686;2022-11-20T00:05:46;96098.66;;;5.68;73.33
57594;BME280;43423;46.510;6.686;2022-11-20T00:08:12;96082.63;;;5.79;71.78
57594;BME280;43423;46.510;6.686;2022-11-20T00:10:39;96104.91;;;6.05;70.55
57594;BME280;43423;46.510;6.686;2022-11-20T00:13:05;96099.75;;;6.17;69.19
57594;BME280;43423;46.510;6.686;2022-11-20T00:15:31;96110.75;;;6.31;68.44
57594;BME280;43423;46.510;6.686;2022-11-20T00:17:56;96102.91;;;6.33;68.04
57594;BME280;43423;46.510;6.686;2022-11-20T00:20:22;96111.38;;;6.35;67.80
57594;BME280;43423;46.510;6.686;2022-11-20T00:22:49;96120.44;;;6.51;67.06
57594;BME280;43423;46.510;6.686;2022-11-20T00:25:15;96120.44;;;6.51;67.67
57594;BME280;43423;46.510;6.686;2022-11-20T00:27:41;96132.59;;;6.50;67.47
57594;BME280;43423;46.510;6.686;2022-11-20T00:30:08;96126.38;;;6.49;66.88
57594;BME280;43423;46.510;6.686;2022-11-20T00:32:33;96132.59;;;6.50;67.14
57594;BME280;43423;46.510;6.686;2022-11-20T00:34:59;96137.88;;;6.53;67.34
57594;BME280;43423;46.510;6.686;2022-11-20T00:37:25;96141.38;;;6.54;66.79
57594;BME280;43423;46.510;6.686;2022-11-20T00:39:50;96139.25;;;6.58;66.59
57594;BME280;43423;46.510;6.686;2022-11-20T00:42:16;96137.44;;;6.46;66.70
57594;BME280;43423;46.510;6.686;2022-11-20T00:44:42;96135.63;;;6.42;65.94
57594;BME280;43423;46.510;6.686;2022-11-20T00:47:07;96142.16;;;6.45;65.85
57594;BME280;43423;46.510;6.686;2022-11-20T00:49:33;96136.53;;;6.49;65.81
57594;BME280;43423;46.510;6.686;2022-11-20T00:51:59;96133.34;;;6.50;65.01
57594;BME280;43423;46.510;6.686;2022-11-20T00:54:24;96136.53;;;6.49;65.50
57594;BME280;43423;46.510;6.686;2022-11-20T00:56:52;96143.81;;;6.52;64.76
57594;BME280;43423;46.510;6.686;2022-11-20T00:59:18;96150.19;;;6.58;64.93
57594;BME280;43423;46.510;6.686;2022-11-20T01:01:44;96153.19;;;6.60;64.48
57594;BME280;43423;46.510;6.686;2022-11-20T01:04:12;96154.56;;;6.64;65.13
57594;BME280;43423;46.510;6.686;2022-11-20T01:06:38;96151.06;;;6.55;64.67
57594;BME280;43423;46.510;6.686;2022-11-20T01:09:11;96158.66;;;6.60;63.72
57594;BME280;43423;46.510;6.686;2022-11-20T01:11:40;96155.44;;;6.70;64.92
57594;BME280;43423;46.510;6.686;2022-11-20T01:14:09;96167.00;;;6.65;64.31
57594;BME280;43423;46.510;6.686;2022-11-20T01:16:38;96171.38;;;6.63;64.38
57594;BME280;43423;46.510;6.686;2022-11-20T01:19:06;96170.16;;;6.73;64.74
57594;BME280;43423;46.510;6.686;2022-11-20T01:21:36;96168.34;;;6.70;63.78
57594;BME280;43423;46.510;6.686;2022-11-20T01:24:03;96174.41;;;6.74;64.07
57594;BME280;43423;46.510;6.686;2022-11-20T01:26:31;96182.47;;;6.68;64.50
57594;BME280;43423;46.510;6.686;2022-11-20T01:28:57;96173.22;;;6.66;64.50
57594;BME280;43423;46.510;6.686;2022-11-20T01:31:26;96181.44;;;6.48;65.21
57594;BME280;43423;46.510;6.686;2022-11-20T01:33:56;96179.34;;;6.42;65.03
57594;BME280;43423;46.510;6.686;2022-11-20T01:36:24;96170.81;;;6.50;65.07
57594;BME280;43423;46.510;6.686;2022-11-20T01:38:55;96172.03;;;6.58;65.02
57594;BME280;43423;46.510;6.686;2022-11-20T01:41:22;96164.63;;;6.40;65.61
57594;BME280;43423;46.510;6.686;2022-11-20T01:44:06;96167.50;;;6.36;66.11
57594;BME280;43423;46.510;6.686;2022-11-20T01:46:35;96178.72;;;6.38;65.81
57594;BME280;43423;46.510;6.686;2022-11-20T01:49:24;96181.75;;;6.31;66.35
57594;BME280;43423;46.510;6.686;2022-11-20T01:52:32;96177.69;;;6.18;65.42
57594;BME280;43423;46.510;6.686;2022-11-20T01:55:03;96182.69;;;6.19;66.26
57594;BME280;43423;46.510;6.686;2022-11-20T01:57:32;96178.56;;;6.24;66.47
57594;BME280;43423;46.510;6.686;2022-11-20T02:00:08;96184.34;;;6.44;66.07
57594;BME280;43423;46.510;6.686;2022-11-20T02:02:36;96173.88;;;6.33;65.56
57594;BME280;43423;46.510;6.686;2022-11-20T02:05:37;96182.38;;;6.26;66.51
57594;BME280;43423;46.510;6.686;2022-11-20T02:08:06;96183.47;;;6.10;67.03
57594;BME280;43423;46.510;6.686;2022-11-20T02:10:32;96183.00;;;6.12;66.59
57594;BME280;43423;46.510;6.686;2022-11-20T02:12:58;96180.84;;;6.16;67.15
57594;BME280;43423;46.510;6.686;2022-11-20T02:15:42;96183.91;;;6.27;67.02
57594;BME280;43423;46.510;6.686;2022-11-20T02:18:09;96189.06;;;6.07;68.53
57594;BME280;43423;46.510;6.686;2022-11-20T02:20:36;96184.81;;;6.24;67.79
57594;BME280;43423;46.510;6.686;2022-11-20T02:23:10;96187.69;;;6.21;67.48
57594;BME280;43423;46.510;6.686;2022-11-20T02:25:38;96190.44;;;6.11;67.79
57594;BME280;43423;46.510;6.686;2022-11-20T02:28:05;96186.66;;;6.09;68.26
57594;BME280;43423;46.510;6.686;2022-11-20T02:30:31;96187.69;;;5.93;68.52
57594;BME280;43423;46.510;6.686;2022-11-20T02:32:57;96180.88;;;6.07;68.29
57594;BME280;43423;46.510;6.686;2022-11-20T02:37:52;96187.97;;;5.86;68.26
57594;BME280;43423;46.510;6.686;2022-11-20T02:40:18;96202.66;;;5.70;69.17
57594;BME280;43423;46.510;6.686;2022-11-20T02:42:44;96198.16;;;5.95;70.18
57594;BME280;43423;46.510;6.686;2022-11-20T02:45:10;96194.66;;;6.03;69.79
57594;BME280;43423;46.510;6.686;2022-11-20T02:47:36;96198.44;;;6.06;70.90
57594;BME280;43423;46.510;6.686;2022-11-20T02:50:03;96206.06;;;6.11;71.48
57594;BME280;43423;46.510;6.686;2022-11-20T02:52:29;96202.69;;;5.98;70.76
57594;BME280;43423;46.510;6.686;2022-11-20T02:54:55;96193.47;;;5.95;71.12
57594;BME280;43423;46.510;6.686;2022-11-20T02:57:21;96195.72;;;5.97;71.50
57594;BME280;43423;46.510;6.686;2022-11-20T02:59:46;96198.16;;;5.95;70.97
57594;BME280;43423;46.510;6.686;2022-11-20T03:02:12;96196.16;;;5.86;70.62
57594;BME280;43423;46.510;6.686;2022-11-20T03:04:37;96199.97;;;6.16;68.32
57594;BME280;43423;46.510;6.686;2022-11-20T03:07:03;96202.09;;;6.30;66.15
57594;BME280;43423;46.510;6.686;2022-11-20T03:09:29;96199.06;;;6.28;66.42
57594;BME280;43423;46.510;6.686;2022-11-20T03:11:55;96183.59;;;6.25;66.43
57594;BME280;43423;46.510;6.686;2022-11-20T03:14:20;96186.63;;;6.27;65.97
57594;BME280;43423;46.510;6.686;2022-11-20T03:16:46;96203.91;;;6.42;65.05
57594;BME280;43423;46.510;6.686;2022-11-20T03:19:12;96188.56;;;6.45;64.15
57594;BME280;43423;46.510;6.686;2022-11-20T03:21:38;96197.66;;;6.60;63.92
57594;BME280;43423;46.510;6.686;2022-11-20T03:24:03;96212.97;;;6.67;63.22
57594;BME280;43423;46.510;6.686;2022-11-20T03:26:30;96215.53;;;6.70;63.54
57594;BME280;43423;46.510;6.686;2022-11-20T03:28:58;96216.66;;;6.64;64.57
57594;BME280;43423;46.510;6.686;2022-11-20T03:31:32;96214.22;;;6.57;65.07
57594;BME280;43423;46.510;6.686;2022-11-20T03:33:59;96214.81;;;6.52;65.25
57594;BME280;43423;46.510;6.686;2022-11-20T03:36:25;96204.81;;;6.39;65.09
57594;BME280;43423;46.510;6.686;2022-11-20T03:38:53;96208.63;;;6.42;65.09
57594;BME280;43423;46.510;6.686;2022-11-20T03:41:27;96211.66;;;6.35;65.50
57594;BME280;43423;46.510;6.686;2022-11-20T03:43:57;96212.25;;;6.48;65.59
57594;BME280;43423;46.510;6.686;2022-11-20T03:46:24;96210.59;;;6.41;65.87
57594;BME280;43423;46.510;6.686;2022-11-20T03:48:49;96214.22;;;6.38;66.23
57594;BME280;43423;46.510;6.686;2022-11-20T03:51:18;96216.66;;;6.36;67.27
57594;BME280;43423;46.510;6.686;2022-11-20T03:53:45;96216.94;;;6.38;67.80
57594;BME280;43423;46.510;6.686;2022-11-20T03:56:12;96227.25;;;6.53;67.81
57594;BME280;43423;46.510;6.686;2022-11-20T03:58:39;96218.16;;;6.37;68.77
57594;BME280;43423;46.510;6.686;2022-11-20T04:01:13;96225.00;;;6.42;68.27
57594;BME280;43423;46.510;6.686;2022-11-20T04:03:41;96223.03;;;6.33;69.13
57594;BME280;43423;46.510;6.686;2022-11-20T04:06:10;96225.75;;;6.42;70.28
57594;BME280;43423;46.510;6.686;2022-11-20T04:08:36;96215.44;;;6.37;70.34
57594;BME280;43423;46.510;6.686;2022-11-20T04:11:29;96235.47;;;6.43;69.99
57594;BME280;43423;46.510;6.686;2022-11-20T04:13:57;96218.16;;;6.47;69.45
57594;BME280;43423;46.510;6.686;2022-11-20T04:16:24;96229.53;;;6.63;69.24
57594;BME280;43423;46.510;6.686;2022-11-20T04:18:54;96229.69;;;6.60;69.99
57594;BME280;43423;46.510;6.686;2022-11-20T04:21:20;96223.50;;;6.41;70.42
57594;BME280;43423;46.510;6.686;2022-11-20T04:23:45;96237.28;;;6.47;70.15
57594;BME280;43423;46.510;6.686;2022-11-20T04:26:12;96216.94;;;6.38;71.22
57594;BME280;43423;46.510;6.686;2022-11-20T04:28:38;96221.66;;;6.29;70.90
57594;BME280;43423;46.510;6.686;2022-11-20T04:31:10;96233.34;;;6.02;71.49
57594;BME280;43423;46.510;6.686;2022-11-20T04:33:37;96228.72;;;5.89;73.43
57594;BME280;43423;46.510;6.686;2022-11-20T04:36:11;96222.56;;;6.07;74.26
57594;BME280;43423;46.510;6.686;2022-11-20T04:38:37;96229.41;;;6.12;74.07
57594;BME280;43423;46.510;6.686;2022-11-20T04:41:05;96224.41;;;6.10;74.17
57594;BME280;43423;46.510;6.686;2022-11-20T04:43:31;96234.56;;;6.01;74.56
57594;BME280;43423;46.510;6.686;2022-11-20T04:45:57;96226.94;;;5.86;74.87
57594;BME280;43423;46.510;6.686;2022-11-20T04:48:24;96237.88;;;6.05;74.71
57594;BME280;43423;46.510;6.686;2022-11-20T04:50:51;96229.09;;;6.01;75.04
57594;BME280;43423;46.510;6.686;2022-11-20T04:53:17;96240.59;;;5.96;75.56
57594;BME280;43423;46.510;6.686;2022-11-20T04:55:44;96226.00;;;5.89;76.10
57594;BME280;43423;46.510;6.686;2022-11-20T04:58:10;96212.66;;;5.82;76.66
57594;BME280;43423;46.510;6.686;2022-11-20T05:00:36;96225.16;;;5.93;77.16
57594;BME280;43423;46.510;6.686;2022-11-20T05:03:02;96213.56;;;5.79;77.12
57594;BME280;43423;46.510;6.686;2022-11-20T05:05:28;96227.22;;;5.88;78.22
57594;BME280;43423;46.510;6.686;2022-11-20T05:07:56;96219.03;;;5.79;78.97
57594;BME280;43423;46.510;6.686;2022-11-20T05:10:23;96222.03;;;5.63;78.05
57594;BME280;43423;46.510;6.686;2022-11-20T05:12:48;96217.81;;;5.89;77.34
57594;BME280;43423;46.510;6.686;2022-11-20T05:15:14;96216.66;;;6.09;75.82
57594;BME280;43423;46.510;6.686;2022-11-20T05:17:39;96219.22;;;5.94;76.45
57594;BME280;43423;46.510;6.686;2022-11-20T05:20:06;96221.13;;;5.75;77.82
57594;BME280;43423;46.510;6.686;2022-11-20T05:22:31;96207.19;;;5.64;77.74
57594;BME280;43423;46.510;6.686;2022-11-20T05:24:57;96205.13;;;5.37;78.84
57594;BME280;43423;46.510;6.686;2022-11-20T05:27:23;96228.25;;;5.64;78.28
57594;BME280;43423;46.510;6.686;2022-11-20T05:29:49;96233.56;;;5.76;79.11
57594;BME280;43423;46.510;6.686;2022-11-20T05:32:14;96228.44;;;5.78;78.53
57594;BME280;43423;46.510;6.686;2022-11-20T05:34:40;96224.81;;;5.91;78.77
57594;BME280;43423;46.510;6.686;2022-11-20T05:37:05;96229.84;;;6.10;77.88
57594;BME280;43423;46.510;6.686;2022-11-20T05:39:31;96231.97;;;5.97;78.68
57594;BME280;43423;46.510;6.686;2022-11-20T05:41:56;96229.84;;;6.01;78.80
57594;BME280;43423;46.510;6.686;2022-11-20T05:44:41;96223.19;;;5.93;79.30
57594;BME280;43423;46.510;6.686;2022-11-20T05:47:06;96228.63;;;5.93;79.53
57594;BME280;43423;46.510;6.686;2022-11-20T05:49:32;96217.53;;;5.87;79.05
57594;BME280;43423;46.510;6.686;2022-11-20T05:51:58;96238.34;;;6.03;78.41
57594;BME280;43423;46.510;6.686;2022-11-20T05:54:23;96229.22;;;5.97;78.83
57594;BME280;43423;46.510;6.686;2022-11-20T05:56:49;96230.91;;;6.04;78.73
57594;BME280;43423;46.510;6.686;2022-11-20T05:59:15;96241.66;;;6.07;77.73
57594;BME280;43423;46.510;6.686;2022-11-20T06:01:40;96224.81;;;5.91;77.98
57594;BME280;43423;46.510;6.686;2022-11-20T06:04:06;96236.66;;;6.06;78.50
57594;BME280;43423;46.510;6.686;2022-11-20T06:06:32;96239.69;;;6.08;78.40
57594;BME280;43423;46.510;6.686;2022-11-20T06:08:58;96236.66;;;6.06;77.30
57594;BME280;43423;46.510;6.686;2022-11-20T06:11:24;96229.50;;;5.90;77.38
57594;BME280;43423;46.510;6.686;2022-11-20T06:13:50;96240.91;;;5.98;78.94
57594;BME280;43423;46.510;6.686;2022-11-20T06:16:18;96233.91;;;5.87;77.72
57594;BME280;43423;46.510;6.686;2022-11-20T06:18:45;96241.19;;;6.00;78.01
57594;BME280;43423;46.510;6.686;2022-11-20T06:21:16;96233.19;;;6.05;77.46
57594;BME280;43423;46.510;6.686;2022-11-20T06:23:42;96247.59;;;6.06;76.75
57594;BME280;43423;46.510;6.686;2022-11-20T06:26:10;96234.56;;;6.19;76.78
57594;BME280;43423;46.510;6.686;2022-11-20T06:28:37;96232.44;;;6.23;76.21
57594;BME280;43423;46.510;6.686;2022-11-20T06:31:03;96236.25;;;6.17;76.04
57594;BME280;43423;46.510;6.686;2022-11-20T06:33:29;96238.22;;;6.25;75.93
57594;BME280;43423;46.510;6.686;2022-11-20T06:35:58;96244.56;;;6.22;75.16
57594;BME280;43423;46.510;6.686;2022-11-20T06:38:25;96251.53;;;6.14;75.42
57594;BME280;43423;46.510;6.686;2022-11-20T06:40:51;96237.59;;;6.03;76.28
57594;BME280;43423;46.510;6.686;2022-11-20T06:43:17;96244.56;;;6.04;76.44
57594;BME280;43423;46.510;6.686;2022-11-20T06:45:42;96253.34;;;5.99;77.08
57594;BME280;43423;46.510;6.686;2022-11-20T06:48:08;96245.75;;;5.94;77.32
57594;BME280;43423;46.510;6.686;2022-11-20T06:50:37;96248.06;;;5.55;78.58
57594;BME280;43423;46.510;6.686;2022-11-20T06:53:04;96260.25;;;5.81;78.23
57594;BME280;43423;46.510;6.686;2022-11-20T06:55:30;96227.19;;;5.70;78.14
57594;BME280;43423;46.510;6.686;2022-11-20T06:57:57;96261.31;;;5.84;79.48
57594;BME280;43423;46.510;6.686;2022-11-20T07:00:22;96263.50;;;5.98;79.97
57594;BME280;43423;46.510;6.686;2022-11-20T07:02:48;96258.78;;;5.99;79.84
57594;BME280;43423;46.510;6.686;2022-11-20T07:05:13;96262.59;;;6.01;79.32
57594;BME280;43423;46.510;6.686;2022-11-20T07:07:39;96260.78;;;6.07;79.52
57594;BME280;43423;46.510;6.686;2022-11-20T07:10:05;96272.63;;;6.13;79.31
57594;BME280;43423;46.510;6.686;2022-11-20T07:12:31;96264.25;;;5.99;79.51
57594;BME280;43423;46.510;6.686;2022-11-20T07:14:57;96272.41;;;5.89;78.65
57594;BME280;43423;46.510;6.686;2022-11-20T07:17:22;96271.09;;;5.94;78.91
57594;BME280;43423;46.510;6.686;2022-11-20T07:19:48;96264.66;;;5.88;78.25
57594;BME280;43423;46.510;6.686;2022-11-20T07:22:13;96267.75;;;5.99;78.69
57594;BME280;43423;46.510;6.686;2022-11-20T07:24:39;96273.06;;;6.03;78.92
57594;BME280;43423;46.510;6.686;2022-11-20T07:27:05;96276.41;;;6.07;77.51
57594;BME280;43423;46.510;6.686;2022-11-20T07:29:30;96292.50;;;6.23;77.72
57594;BME280;43423;46.510;6.686;2022-11-20T07:31:56;96291.59;;;6.26;77.28
57594;BME280;43423;46.510;6.686;2022-11-20T07:34:22;96283.41;;;6.26;77.41
57594;BME280;43423;46.510;6.686;2022-11-20T07:36:48;96291.56;;;6.08;78.74
57594;BME280;43423;46.510;6.686;2022-11-20T07:39:13;96284.75;;;6.03;79.85
57594;BME280;43423;46.510;6.686;2022-11-20T07:41:39;96285.50;;;6.04;80.42
57594;BME280;43423;46.510;6.686;2022-11-20T07:44:05;96287.66;;;6.18;79.44
57594;BME280;43423;46.510;6.686;2022-11-20T07:46:30;96286.59;;;6.25;78.98
57594;BME280;43423;46.510;6.686;2022-11-20T07:48:56;96284.34;;;6.32;78.28
57594;BME280;43423;46.510;6.686;2022-11-20T07:51:22;96243.50;;;6.01;79.05
57594;BME280;43423;46.510;6.686;2022-11-20T07:53:51;96287.81;;;6.33;79.14
57594;BME280;43423;46.510;6.686;2022-11-20T07:56:16;96274.16;;;6.42;78.59
57594;BME280;43423;46.510;6.686;2022-11-20T07:58:42;96275.22;;;6.44;78.91
57594;BME280;43423;46.510;6.686;2022-11-20T08:01:08;96275.22;;;6.44;78.77
57594;BME280;43423;46.510;6.686;2022-11-20T08:03:34;96294.94;;;6.67;78.55
57594;BME280;43423;46.510;6.686;2022-11-20T08:06:03;96290.41;;;6.64;78.07
57594;BME280;43423;46.510;6.686;2022-11-20T08:08:29;96281.59;;;6.69;78.63
57594;BME280;43423;46.510;6.686;2022-11-20T08:10:58;96291.28;;;6.79;78.59
57594;BME280;43423;46.510;6.686;2022-11-20T08:13:42;96296.31;;;6.81;79.29
57594;BME280;43423;46.510;6.686;2022-11-20T08:16:27;96309.50;;;6.91;78.19
57594;BME280;43423;46.510;6.686;2022-11-20T08:18:53;96298.25;;;6.98;77.54
57594;BME280;43423;46.510;6.686;2022-11-20T08:21:19;96292.34;;;6.82;76.82
57594;BME280;43423;46.510;6.686;2022-11-20T08:23:45;96284.16;;;6.82;76.50
57594;BME280;43423;46.510;6.686;2022-11-20T08:26:10;96301.59;;;6.93;77.37
57594;BME280;43423;46.510;6.686;2022-11-20T08:28:36;96300.53;;;6.91;76.61
57594;BME280;43423;46.510;6.686;2022-11-20T08:31:03;96298.75;;;6.88;77.57
57594;BME280;43423;46.510;6.686;2022-11-20T08:33:29;96297.97;;;6.87;77.32
57594;BME280;43423;46.510;6.686;2022-11-20T08:35:59;96307.38;;;7.05;77.06
57594;BME280;43423;46.510;6.686;2022-11-20T08:38:26;96305.84;;;7.04;76.24
57594;BME280;43423;46.510;6.686;2022-11-20T08:40:52;96303.41;;;7.06;75.85
57594;BME280;43423;46.510;6.686;2022-11-20T08:43:36;96314.94;;;7.10;75.47
57594;BME280;43423;46.510;6.686;2022-11-20T08:46:01;96313.09;;;7.16;76.45
57594;BME280;43423;46.510;6.686;2022-11-20T08:48:27;96322.69;;;7.20;75.96
57594;BME280;43423;46.510;6.686;2022-11-20T08:50:53;96321.59;;;7.27;74.53
57594;BME280;43423;46.510;6.686;2022-11-20T08:53:18;96315.09;;;7.06;76.43
57594;BME280;43423;46.510;6.686;2022-11-20T08:55:44;96318.44;;;7.19;75.34
57594;BME280;43423;46.510;6.686;2022-11-20T08:58:09;96316.00;;;7.12;74.81
57594;BME280;43423;46.510;6.686;2022-11-20T09:00:35;96328.94;;;7.12;74.91
57594;BME280;43423;46.510;6.686;2022-11-20T09:03:01;96319.97;;;6.93;76.02
57594;BME280;43423;46.510;6.686;2022-11-20T09:05:27;96325.88;;;7.10;75.84
57594;BME280;43423;46.510;6.686;2022-11-20T09:07:56;96320.09;;;7.17;75.58
57594;BME280;43423;46.510;6.686;2022-11-20T09:10:22;96324.78;;;7.25;75.21
57594;BME280;43423;46.510;6.686;2022-11-20T09:12:52;96325.84;;;7.28;75.28
57594;BME280;43423;46.510;6.686;2022-11-20T09:15:18;96321.91;;;7.29;74.36
57594;BME280;43423;46.510;6.686;2022-11-20T09:17:53;96327.38;;;7.29;74.46
57594;BME280;43423;46.510;6.686;2022-11-20T09:20:20;96325.88;;;7.10;73.98
57594;BME280;43423;46.510;6.686;2022-11-20T09:22:46;96324.66;;;7.20;73.99
57594;BME280;43423;46.510;6.686;2022-11-20T09:25:11;96329.81;;;7.09;72.97
57594;BME280;43423;46.510;6.686;2022-11-20T09:27:37;96331.34;;;7.19;73.69
57594;BME280;43423;46.510;6.686;2022-11-20T09:30:04;96335.28;;;7.27;74.36
57594;BME280;43423;46.510;6.686;2022-11-20T09:32:29;96330.09;;;7.29;74.17
57594;BME280;43423;46.510;6.686;2022-11-20T09:34:55;96334.63;;;7.41;73.92
57594;BME280;43423;46.510;6.686;2022-11-20T09:37:20;96337.81;;;7.40;72.93
57594;BME280;43423;46.510;6.686;2022-11-20T09:39:46;96332.94;;;7.44;73.15
57594;BME280;43423;46.510;6.686;2022-11-20T09:42:14;96331.81;;;8.02;71.24
57594;BME280;43423;46.510;6.686;2022-11-20T09:44:55;96330.03;;;8.23;68.87
57594;BME280;43423;46.510;6.686;2022-11-20T09:55:14;96324.75;;;8.10;65.08
57594;BME280;43423;46.510;6.686;2022-11-20T09:57:43;96331.78;;;8.59;62.30
57594;BME280;43423;46.510;6.686;2022-11-20T10:00:12;96325.66;;;8.16;62.87
57594;BME280;43423;46.510;6.686;2022-11-20T10:02:51;96326.56;;;8.46;61.91
57594;BME280;43423;46.510;6.686;2022-11-20T10:05:22;96319.00;;;8.32;62.45
57594;BME280;43423;46.510;6.686;2022-11-20T10:08:15;96333.56;;;8.47;60.52
57594;BME280;43423;46.510;6.686;2022-11-20T10:10:50;96333.22;;;8.21;62.69
57594;BME280;43423;46.510;6.686;2022-11-20T10:16:26;96335.50;;;8.23;61.86
57594;BME280;43423;46.510;6.686;2022-11-20T10:29:35;96331.53;;;7.57;61.54
57594;BME280;43423;46.510;6.686;2022-11-20T10:32:23;96328.59;;;8.36;62.23
57594;BME280;43423;46.510;6.686;2022-11-20T10:35:04;96322.66;;;8.77;59.24
57594;BME280;43423;46.510;6.686;2022-11-20T10:37:31;96317.09;;;8.71;58.23
57594;BME280;43423;46.510;6.686;2022-11-20T10:43:32;96330.84;;;9.30;58.38
57594;BME280;43423;46.510;6.686;2022-11-20T10:45:44;96331.06;;;9.27;55.66
57594;BME280;43423;46.510;6.686;2022-11-20T10:48:22;96334.56;;;9.42;57.18
57594;BME280;43423;46.510;6.686;2022-11-20T10:53:42;96328.97;;;10.01;54.97
57594;BME280;43423;46.510;6.686;2022-11-20T10:59:25;96320.63;;;10.45;56.59
57594;BME280;43423;46.510;6.686;2022-11-20T11:01:42;96326.28;;;9.71;55.08
57594;BME280;43423;46.510;6.686;2022-11-20T11:06:58;96322.78;;;10.21;56.27
57594;BME280;43423;46.510;6.686;2022-11-20T11:09:37;96317.56;;;9.88;56.14
57594;BME280;43423;46.510;6.686;2022-11-20T11:12:09;96304.97;;;10.16;54.52
57594;BME280;43423;46.510;6.686;2022-11-20T11:14:43;96300.50;;;10.54;56.93
57594;BME280;43423;46.510;6.686;2022-11-20T11:17:19;96288.59;;;11.09;53.86
57594;BME280;43423;46.510;6.686;2022-11-20T11:19:59;96291.25;;;11.29;52.98
57594;BME280;43423;46.510;6.686;2022-11-20T11:22:25;96289.53;;;11.06;51.43
57594;BME280;43423;46.510;6.686;2022-11-20T11:24:53;96292.13;;;11.41;51.94
57594;BME280;43423;46.510;6.686;2022-11-20T11:27:19;96275.78;;;11.32;50.74
57594;BME280;43423;46.510;6.686;2022-11-20T11:29:45;96275.38;;;11.44;51.03
57594;BME280;43423;46.510;6.686;2022-11-20T11:34:38;96269.53;;;10.79;50.61
57594;BME280;43423;46.510;6.686;2022-11-20T11:37:04;96260.19;;;11.23;51.28
57594;BME280;43423;46.510;6.686;2022-11-20T11:39:37;96246.50;;;11.34;50.31
57594;BME280;43423;46.510;6.686;2022-11-20T11:42:10;96249.88;;;11.50;52.10
57594;BME280;43423;46.510;6.686;2022-11-20T11:44:44;96242.44;;;11.24;52.65
57594;BME280;43423;46.510;6.686;2022-11-20T11:55:09;96219.31;;;12.27;49.26
57594;BME280;43423;46.510;6.686;2022-11-20T11:57:49;96212.81;;;11.82;47.04
57594;BME280;43423;46.510;6.686;2022-11-20T12:00:17;96191.69;;;12.11;48.26
57594;BME280;43423;46.510;6.686;2022-11-20T12:07:52;96183.50;;;11.79;49.31
57594;BME280;43423;46.510;6.686;2022-11-20T12:10:39;96191.50;;;12.25;48.70
57594;BME280;43423;46.510;6.686;2022-11-20T12:13:25;96188.38;;;12.94;47.26
57594;BME280;43423;46.510;6.686;2022-11-20T12:15:54;96185.38;;;13.09;47.11
57594;BME280;43423;46.510;6.686;2022-11-20T12:18:22;96169.78;;;12.78;45.70
57594;BME280;43423;46.510;6.686;2022-11-20T12:24:23;96165.78;;;12.68;46.38
57594;BME280;43423;46.510;6.686;2022-11-20T12:29:53;96157.28;;;11.95;47.35
57594;BME280;43423;46.510;6.686;2022-11-20T12:34:56;96164.28;;;13.00;46.23
57594;BME280;43423;46.510;6.686;2022-11-20T12:37:36;96161.06;;;11.97;48.23
57594;BME280;43423;46.510;6.686;2022-11-20T12:43:11;96174.81;;;12.74;46.97
57594;BME280;43423;46.510;6.686;2022-11-20T12:46:42;96155.19;;;12.44;46.24
57594;BME280;43423;46.510;6.686;2022-11-20T12:51:52;96143.81;;;12.14;46.19
57594;BME280;43423;46.510;6.686;2022-11-20T12:57:21;96140.69;;;12.77;44.92
57594;BME280;43423;46.510;6.686;2022-11-20T12:59:56;96148.22;;;12.71;46.31
57594;BME280;43423;46.510;6.686;2022-11-20T13:02:30;96143.69;;;12.68;45.63
57594;BME280;43423;46.510;6.686;2022-11-20T13:05:09;96155.97;;;12.55;44.99
57594;BME280;43423;46.510;6.686;2022-11-20T13:07:39;96156.19;;;12.35;46.77
57594;BME280;43423;46.510;6.686;2022-11-20T13:10:14;96152.81;;;11.17;46.97
57594;BME280;43423;46.510;6.686;2022-11-20T13:12:51;96157.38;;;11.63;47.67
57594;BME280;43423;46.510;6.686;2022-11-20T13:15:42;96165.44;;;12.32;46.16
57594;BME280;43423;46.510;6.686;2022-11-20T13:18:11;96157.88;;;11.62;47.03
57594;BME280;43423;46.510;6.686;2022-11-20T13:20:42;96149.78;;;11.53;47.61
57594;BME280;43423;46.510;6.686;2022-11-20T13:23:08;96146.63;;;11.71;47.84
57594;BME280;43423;46.510;6.686;2022-11-20T13:25:39;96143.53;;;12.00;49.54
57594;BME280;43423;46.510;6.686;2022-11-20T13:28:28;96141.38;;;11.73;48.63
57594;BME280;43423;46.510;6.686;2022-11-20T13:30:56;96146.84;;;11.62;48.95
57594;BME280;43423;46.510;6.686;2022-11-20T13:33:31;96151.19;;;11.00;49.90
57594;BME280;43423;46.510;6.686;2022-11-20T13:36:04;96136.19;;;10.69;50.42
57594;BME280;43423;46.510;6.686;2022-11-20T13:38:43;96124.53;;;10.54;50.82
57594;BME280;43423;46.510;6.686;2022-11-20T13:41:10;96122.16;;;10.41;50.34
57594;BME280;43423;46.510;6.686;2022-11-20T13:43:57;96110.06;;;10.07;51.41
57594;BME280;43423;46.510;6.686;2022-11-20T13:46:35;96111.94;;;9.75;52.89
57594;BME280;43423;46.510;6.686;2022-11-20T13:49:06;96107.06;;;10.05;52.96
57594;BME280;43423;46.510;6.686;2022-11-20T13:51:41;96105.84;;;9.65;53.92
57594;BME280;43423;46.510;6.686;2022-11-20T13:57:22;96100.56;;;10.28;52.48
57594;BME280;43423;46.510;6.686;2022-11-20T14:02:37;96098.16;;;9.49;53.75
57594;BME280;43423;46.510;6.686;2022-11-20T14:05:04;96107.63;;;9.89;52.50
57594;BME280;43423;46.510;6.686;2022-11-20T14:07:40;96102.09;;;10.09;53.22
57594;BME280;43423;46.510;6.686;2022-11-20T14:10:19;96108.03;;;9.61;56.33
57594;BME280;43423;46.510;6.686;2022-11-20T14:12:45;96098.38;;;9.66;55.29
57594;BME280;43423;46.510;6.686;2022-11-20T14:15:43;96103.63;;;9.29;55.54
57594;BME280;43423;46.510;6.686;2022-11-20T14:18:22;96096.88;;;9.09;56.21
57594;BME280;43423;46.510;6.686;2022-11-20T14:20:48;96093.53;;;8.85;54.35
57594;BME280;43423;46.510;6.686;2022-11-20T14:23:26;96083.25;;;9.00;55.71
57594;BME280;43423;46.510;6.686;2022-11-20T14:25:52;96085.53;;;9.02;54.17
57594;BME280;43423;46.510;6.686;2022-11-20T14:28:25;96071.00;;;8.95;53.82
57594;BME280;43423;46.510;6.686;2022-11-20T14:30:51;96061.94;;;8.89;54.30
57594;BME280;43423;46.510;6.686;2022-11-20T14:33:18;96061.69;;;8.58;56.23
57594;BME280;43423;46.510;6.686;2022-11-20T14:35:50;96067.06;;;8.82;58.40